sensor_id;sensor_type;location;lat;lon;timestamp;P1;durP1;ratioP1;P2;durP2;ratioP2
25045;SDS011;13044;49.304;12.840;2023-05-23T00:01:30;7.90;;;7.10;;
25045;SDS011;13044;49.304;12.840;2023-05-23T00:03:57;19.42;;;9.77;;
25045;SDS011;13044;49.304;12.840;2023-05-23T00:06:24;8.18;;;7.28;;
25045;SDS011;13044;49.304;12.840;2023-05-23T00:08:52;12.82;;;8.02;;
25045;SDS011;13044;49.304;12.840;2023-05-23T00:11:18;7.82;;;6.80;;
25045;SDS011;13044;49.304;12.840;2023-05-23T00:13:49;9.90;;;8.25;;
25045;SDS011;13044;49.304;12.840;2023-05-23T00:16:16;9.27;;;7.85;;
25045;SDS011;13044;49.304;12.840;2023-05-23T00:18:43;11.25;;;7.93;;
25045;SDS011;13044;49.304;12.840;2023-05-23T00:21:11;8.68;;;7.63;;
25045;SDS011;13044;49.304;12.840;2023-05-23T00:23:38;11.07;;;7.80;;
25045;SDS011;13044;49.304;12.840;2023-05-23T00:26:08;14.55;;;8.40;;
25045;SDS011;13044;49.304;12.840;2023-05-23T00:28:38;10.63;;;8.27;;
25045;SDS011;13044;49.304;12.840;2023-05-23T00:31:05;10.75;;;8.57;;
25045;SDS011;13044;49.304;12.840;2023-05-23T00:33:32;8.95;;;7.78;;
25045;SDS011;13044;49.304;12.840;2023-05-23T00:35:59;11.00;;;8.25;;
25045;SDS011;13044;49.304;12.840;2023-05-23T00:38:26;9.10;;;6.70;;
25045;SDS011;13044;49.304;12.840;2023-05-23T00:40:53;9.65;;;7.70;;
25045;SDS011;13044;49.304;12.840;2023-05-23T00:43:20;11.60;;;7.63;;
25045;SDS011;13044;49.304;12.840;2023-05-23T00:45:47;8.10;;;7.30;;
25045;SDS011;13044;49.304;12.840;2023-05-23T00:48:15;17.08;;;8.43;;
25045;SDS011;13044;49.304;12.840;2023-05-23T00:50:42;8.68;;;7.28;;
25045;SDS011;13044;49.304;12.840;2023-05-23T00:53:09;8.68;;;7.78;;
25045;SDS011;13044;49.304;12.840;2023-05-23T00:55:36;9.73;;;8.40;;
25045;SDS011;13044;49.304;12.840;2023-05-23T00:58:04;9.45;;;7.80;;
25045;SDS011;13044;49.304;12.840;2023-05-23T01:00:31;11.70;;;8.25;;
25045;SDS011;13044;49.304;12.840;2023-05-23T01:02:59;11.13;;;8.68;;
25045;SDS011;13044;49.304;12.840;2023-05-23T01:05:26;9.70;;;7.75;;
25045;SDS011;13044;49.304;12.840;2023-05-23T01:07:53;12.77;;;8.73;;
25045;SDS011;13044;49.304;12.840;2023-05-23T01:10:22;10.35;;;8.38;;
25045;SDS011;13044;49.304;12.840;2023-05-23T01:18:39;11.23;;;8.70;;
25045;SDS011;13044;49.304;12.840;2023-05-23T01:21:19;14.20;;;9.60;;
25045;SDS011;13044;49.304;12.840;2023-05-23T01:29:42;12.15;;;9.68;;
25045;SDS011;13044;49.304;12.840;2023-05-23T01:32:13;10.73;;;9.60;;
25045;SDS011;13044;49.304;12.840;2023-05-23T01:34:41;11.18;;;9.40;;
25045;SDS011;13044;49.304;12.840;2023-05-23T01:37:09;11.55;;;9.95;;
25045;SDS011;13044;49.304;12.840;2023-05-23T01:39:37;11.93;;;10.07;;
25045;SDS011;13044;49.304;12.840;2023-05-23T01:42:04;12.27;;;9.48;;
25045;SDS011;13044;49.304;12.840;2023-05-23T01:44:32;12.93;;;11.20;;
25045;SDS011;13044;49.304;12.840;2023-05-23T01:47:01;12.88;;;10.20;;
25045;SDS011;13044;49.304;12.840;2023-05-23T01:49:29;12.98;;;10.27;;
25045;SDS011;13044;49.304;12.840;2023-05-23T01:51:58;12.90;;;10.85;;
25045;SDS011;13044;49.304;12.840;2023-05-23T01:54:27;13.55;;;11.80;;
25045;SDS011;13044;49.304;12.840;2023-05-23T01:56:56;11.77;;;10.57;;
25045;SDS011;13044;49.304;12.840;2023-05-23T01:59:23;11.88;;;10.68;;
25045;SDS011;13044;49.304;12.840;2023-05-23T02:01:50;12.85;;;10.35;;
25045;SDS011;13044;49.304;12.840;2023-05-23T02:04:17;12.05;;;10.35;;
25045;SDS011;13044;49.304;12.840;2023-05-23T02:06:44;12.80;;;11.40;;
25045;SDS011;13044;49.304;12.840;2023-05-23T02:09:12;12.13;;;10.82;;
25045;SDS011;13044;49.304;12.840;2023-05-23T02:11:39;13.75;;;11.63;;
25045;SDS011;13044;49.304;12.840;2023-05-23T02:14:06;11.68;;;10.48;;
25045;SDS011;13044;49.304;12.840;2023-05-23T02:16:33;15.13;;;10.32;;
25045;SDS011;13044;49.304;12.840;2023-05-23T02:19:01;15.02;;;10.93;;
25045;SDS011;13044;49.304;12.840;2023-05-23T02:21:29;13.82;;;11.20;;
25045;SDS011;13044;49.304;12.840;2023-05-23T02:24:00;14.40;;;10.98;;
25045;SDS011;13044;49.304;12.840;2023-05-23T02:26:27;14.10;;;11.32;;
25045;SDS011;13044;49.304;12.840;2023-05-23T02:28:54;18.15;;;11.48;;
25045;SDS011;13044;49.304;12.840;2023-05-23T02:31:21;15.35;;;11.60;;
25045;SDS011;13044;49.304;12.840;2023-05-23T02:33:48;14.48;;;11.65;;
25045;SDS011;13044;49.304;12.840;2023-05-23T02:36:15;16.52;;;12.07;;
25045;SDS011;13044;49.304;12.840;2023-05-23T02:38:42;14.35;;;10.88;;
25045;SDS011;13044;49.304;12.840;2023-05-23T02:41:09;17.63;;;11.63;;
25045;SDS011;13044;49.304;12.840;2023-05-23T02:43:36;11.80;;;10.57;;
25045;SDS011;13044;49.304;12.840;2023-05-23T02:46:03;13.05;;;10.90;;
25045;SDS011;13044;49.304;12.840;2023-05-23T02:48:30;14.00;;;11.05;;
25045;SDS011;13044;49.304;12.840;2023-05-23T02:50:57;14.23;;;11.00;;
25045;SDS011;13044;49.304;12.840;2023-05-23T02:53:24;14.38;;;11.52;;
25045;SDS011;13044;49.304;12.840;2023-05-23T02:55:51;12.35;;;11.15;;
25045;SDS011;13044;49.304;12.840;2023-05-23T02:58:18;13.30;;;11.18;;
25045;SDS011;13044;49.304;12.840;2023-05-23T03:00:45;14.32;;;11.32;;
25045;SDS011;13044;49.304;12.840;2023-05-23T03:03:12;13.80;;;11.13;;
25045;SDS011;13044;49.304;12.840;2023-05-23T03:05:39;16.95;;;11.80;;
25045;SDS011;13044;49.304;12.840;2023-05-23T03:08:07;12.77;;;11.18;;
25045;SDS011;13044;49.304;12.840;2023-05-23T03:10:34;14.93;;;11.75;;
25045;SDS011;13044;49.304;12.840;2023-05-23T03:13:01;12.63;;;11.30;;
25045;SDS011;13044;49.304;12.840;2023-05-23T03:15:28;13.50;;;11.63;;
25045;SDS011;13044;49.304;12.840;2023-05-23T03:17:54;16.05;;;11.50;;
25045;SDS011;13044;49.304;12.840;2023-05-23T03:20:21;11.77;;;10.20;;
25045;SDS011;13044;49.304;12.840;2023-05-23T03:22:48;15.85;;;10.65;;
25045;SDS011;13044;49.304;12.840;2023-05-23T03:25:15;14.07;;;11.27;;
25045;SDS011;13044;49.304;12.840;2023-05-23T03:27:42;14.50;;;11.63;;
25045;SDS011;13044;49.304;12.840;2023-05-23T03:30:09;13.50;;;11.15;;
25045;SDS011;13044;49.304;12.840;2023-05-23T03:32:36;14.02;;;11.52;;
25045;SDS011;13044;49.304;12.840;2023-05-23T03:35:03;16.08;;;12.50;;
25045;SDS011;13044;49.304;12.840;2023-05-23T03:37:31;12.25;;;10.88;;
25045;SDS011;13044;49.304;12.840;2023-05-23T03:39:58;16.33;;;12.20;;
25045;SDS011;13044;49.304;12.840;2023-05-23T03:42:26;12.93;;;11.27;;
25045;SDS011;13044;49.304;12.840;2023-05-23T03:44:53;22.05;;;12.35;;
25045;SDS011;13044;49.304;12.840;2023-05-23T03:47:20;15.68;;;12.15;;
25045;SDS011;13044;49.304;12.840;2023-05-23T03:49:49;20.67;;;11.95;;
25045;SDS011;13044;49.304;12.840;2023-05-23T03:52:16;13.95;;;11.30;;
25045;SDS011;13044;49.304;12.840;2023-05-23T03:54:43;14.75;;;11.23;;
25045;SDS011;13044;49.304;12.840;2023-05-23T03:57:10;16.05;;;11.98;;
25045;SDS011;13044;49.304;12.840;2023-05-23T03:59:36;15.00;;;12.05;;
25045;SDS011;13044;49.304;12.840;2023-05-23T04:02:03;13.10;;;11.32;;
25045;SDS011;13044;49.304;12.840;2023-05-23T04:04:31;14.60;;;11.90;;
25045;SDS011;13044;49.304;12.840;2023-05-23T04:06:58;15.50;;;12.05;;
25045;SDS011;13044;49.304;12.840;2023-05-23T04:09:25;12.77;;;10.27;;
25045;SDS011;13044;49.304;12.840;2023-05-23T04:11:51;16.17;;;11.32;;
25045;SDS011;13044;49.304;12.840;2023-05-23T04:14:18;14.20;;;12.50;;
25045;SDS011;13044;49.304;12.840;2023-05-23T04:16:47;14.07;;;11.77;;
25045;SDS011;13044;49.304;12.840;2023-05-23T04:19:14;15.05;;;12.20;;
25045;SDS011;13044;49.304;12.840;2023-05-23T04:21:42;13.40;;;12.05;;
25045;SDS011;13044;49.304;12.840;2023-05-23T04:24:09;17.65;;;11.80;;
25045;SDS011;13044;49.304;12.840;2023-05-23T04:26:36;16.30;;;12.02;;
25045;SDS011;13044;49.304;12.840;2023-05-23T04:29:03;14.43;;;12.48;;
25045;SDS011;13044;49.304;12.840;2023-05-23T04:31:31;15.90;;;12.38;;
25045;SDS011;13044;49.304;12.840;2023-05-23T04:33:59;15.15;;;11.77;;
25045;SDS011;13044;49.304;12.840;2023-05-23T04:36:27;13.52;;;11.20;;
25045;SDS011;13044;49.304;12.840;2023-05-23T04:38:55;15.20;;;12.35;;
25045;SDS011;13044;49.304;12.840;2023-05-23T04:41:22;14.15;;;12.15;;
25045;SDS011;13044;49.304;12.840;2023-05-23T04:43:49;15.10;;;12.10;;
25045;SDS011;13044;49.304;12.840;2023-05-23T04:46:19;12.70;;;11.27;;
25045;SDS011;13044;49.304;12.840;2023-05-23T04:48:52;15.77;;;12.65;;
25045;SDS011;13044;49.304;12.840;2023-05-23T04:51:20;15.40;;;13.05;;
25045;SDS011;13044;49.304;12.840;2023-05-23T04:53:48;29.73;;;14.20;;
25045;SDS011;13044;49.304;12.840;2023-05-23T04:56:16;16.90;;;13.13;;
25045;SDS011;13044;49.304;12.840;2023-05-23T04:58:46;18.25;;;14.18;;
25045;SDS011;13044;49.304;12.840;2023-05-23T05:01:13;24.45;;;14.63;;
25045;SDS011;13044;49.304;12.840;2023-05-23T05:03:40;15.48;;;13.45;;
25045;SDS011;13044;49.304;12.840;2023-05-23T05:06:07;17.25;;;13.40;;
25045;SDS011;13044;49.304;12.840;2023-05-23T05:08:34;22.10;;;14.07;;
25045;SDS011;13044;49.304;12.840;2023-05-23T05:11:01;14.55;;;12.88;;
25045;SDS011;13044;49.304;12.840;2023-05-23T05:13:28;22.10;;;14.18;;
25045;SDS011;13044;49.304;12.840;2023-05-23T05:15:55;17.90;;;14.57;;
25045;SDS011;13044;49.304;12.840;2023-05-23T05:18:22;20.02;;;14.82;;
25045;SDS011;13044;49.304;12.840;2023-05-23T05:20:49;17.92;;;13.95;;
25045;SDS011;13044;49.304;12.840;2023-05-23T05:23:16;16.05;;;13.43;;
25045;SDS011;13044;49.304;12.840;2023-05-23T05:25:43;16.10;;;13.63;;
25045;SDS011;13044;49.304;12.840;2023-05-23T05:28:11;16.48;;;14.00;;
25045;SDS011;13044;49.304;12.840;2023-05-23T05:30:38;17.30;;;13.90;;
25045;SDS011;13044;49.304;12.840;2023-05-23T05:33:05;19.17;;;14.45;;
25045;SDS011;13044;49.304;12.840;2023-05-23T05:35:36;18.25;;;15.00;;
25045;SDS011;13044;49.304;12.840;2023-05-23T05:38:03;17.60;;;15.05;;
25045;SDS011;13044;49.304;12.840;2023-05-23T05:40:31;20.48;;;14.77;;
25045;SDS011;13044;49.304;12.840;2023-05-23T05:42:58;19.85;;;15.73;;
25045;SDS011;13044;49.304;12.840;2023-05-23T05:45:25;19.50;;;15.10;;
25045;SDS011;13044;49.304;12.840;2023-05-23T05:47:52;18.83;;;15.82;;
25045;SDS011;13044;49.304;12.840;2023-05-23T05:50:19;18.85;;;14.93;;
25045;SDS011;13044;49.304;12.840;2023-05-23T05:52:46;18.45;;;15.80;;
25045;SDS011;13044;49.304;12.840;2023-05-23T05:55:12;20.23;;;15.18;;
25045;SDS011;13044;49.304;12.840;2023-05-23T05:57:39;22.17;;;16.67;;
25045;SDS011;13044;49.304;12.840;2023-05-23T06:00:07;23.00;;;16.55;;
25045;SDS011;13044;49.304;12.840;2023-05-23T06:02:38;21.33;;;15.95;;
25045;SDS011;13044;49.304;12.840;2023-05-23T06:05:09;18.38;;;15.95;;
25045;SDS011;13044;49.304;12.840;2023-05-23T06:07:44;21.67;;;16.13;;
25045;SDS011;13044;49.304;12.840;2023-05-23T06:10:13;19.13;;;16.27;;
25045;SDS011;13044;49.304;12.840;2023-05-23T06:12:41;20.02;;;15.52;;
25045;SDS011;13044;49.304;12.840;2023-05-23T06:15:08;18.23;;;15.35;;
25045;SDS011;13044;49.304;12.840;2023-05-23T06:17:35;18.58;;;16.48;;
25045;SDS011;13044;49.304;12.840;2023-05-23T06:20:03;20.33;;;15.98;;
25045;SDS011;13044;49.304;12.840;2023-05-23T06:22:31;19.38;;;15.75;;
25045;SDS011;13044;49.304;12.840;2023-05-23T06:24:58;18.65;;;16.65;;
25045;SDS011;13044;49.304;12.840;2023-05-23T06:27:24;20.38;;;16.52;;
25045;SDS011;13044;49.304;12.840;2023-05-23T06:29:52;21.42;;;17.58;;
25045;SDS011;13044;49.304;12.840;2023-05-23T06:32:18;18.52;;;16.40;;
25045;SDS011;13044;49.304;12.840;2023-05-23T06:34:45;19.83;;;16.73;;
25045;SDS011;13044;49.304;12.840;2023-05-23T06:37:12;22.15;;;17.35;;
25045;SDS011;13044;49.304;12.840;2023-05-23T06:39:39;22.58;;;18.40;;
25045;SDS011;13044;49.304;12.840;2023-05-23T06:42:06;21.35;;;18.30;;
25045;SDS011;13044;49.304;12.840;2023-05-23T06:44:33;21.60;;;18.13;;
25045;SDS011;13044;49.304;12.840;2023-05-23T06:47:00;27.02;;;18.13;;
25045;SDS011;13044;49.304;12.840;2023-05-23T06:49:27;23.00;;;18.13;;
25045;SDS011;13044;49.304;12.840;2023-05-23T06:51:54;22.48;;;17.88;;
25045;SDS011;13044;49.304;12.840;2023-05-23T06:54:21;20.52;;;17.45;;
25045;SDS011;13044;49.304;12.840;2023-05-23T06:56:47;20.55;;;18.20;;
25045;SDS011;13044;49.304;12.840;2023-05-23T06:59:14;20.33;;;18.13;;
25045;SDS011;13044;49.304;12.840;2023-05-23T07:01:41;26.85;;;18.48;;
25045;SDS011;13044;49.304;12.840;2023-05-23T07:04:08;24.55;;;17.55;;
25045;SDS011;13044;49.304;12.840;2023-05-23T07:06:35;22.05;;;18.23;;
25045;SDS011;13044;49.304;12.840;2023-05-23T07:09:02;20.92;;;17.88;;
25045;SDS011;13044;49.304;12.840;2023-05-23T07:11:29;20.20;;;18.00;;
25045;SDS011;13044;49.304;12.840;2023-05-23T07:13:56;20.05;;;17.75;;
25045;SDS011;13044;49.304;12.840;2023-05-23T07:16:24;21.38;;;17.60;;
25045;SDS011;13044;49.304;12.840;2023-05-23T07:18:50;21.02;;;17.48;;
25045;SDS011;13044;49.304;12.840;2023-05-23T07:21:17;20.42;;;18.33;;
25045;SDS011;13044;49.304;12.840;2023-05-23T07:23:44;18.02;;;15.95;;
25045;SDS011;13044;49.304;12.840;2023-05-23T07:26:11;20.17;;;17.08;;
25045;SDS011;13044;49.304;12.840;2023-05-23T07:28:38;20.92;;;16.52;;
25045;SDS011;13044;49.304;12.840;2023-05-23T07:31:05;21.10;;;17.75;;
25045;SDS011;13044;49.304;12.840;2023-05-23T07:33:34;19.33;;;16.92;;
25045;SDS011;13044;49.304;12.840;2023-05-23T07:36:01;20.38;;;16.33;;
25045;SDS011;13044;49.304;12.840;2023-05-23T07:38:28;22.70;;;15.85;;
25045;SDS011;13044;49.304;12.840;2023-05-23T07:40:55;20.35;;;16.83;;
25045;SDS011;13044;49.304;12.840;2023-05-23T07:43:36;19.33;;;17.20;;
25045;SDS011;13044;49.304;12.840;2023-05-23T07:46:03;19.80;;;17.17;;
25045;SDS011;13044;49.304;12.840;2023-05-23T07:48:30;18.67;;;16.67;;
25045;SDS011;13044;49.304;12.840;2023-05-23T07:50:57;18.08;;;15.85;;
25045;SDS011;13044;49.304;12.840;2023-05-23T07:53:24;19.27;;;16.48;;
25045;SDS011;13044;49.304;12.840;2023-05-23T07:55:51;20.60;;;16.95;;
25045;SDS011;13044;49.304;12.840;2023-05-23T07:58:18;20.23;;;16.38;;
25045;SDS011;13044;49.304;12.840;2023-05-23T08:00:45;22.40;;;16.15;;
25045;SDS011;13044;49.304;12.840;2023-05-23T08:03:12;17.45;;;15.52;;
25045;SDS011;13044;49.304;12.840;2023-05-23T08:05:39;23.27;;;16.85;;
25045;SDS011;13044;49.304;12.840;2023-05-23T08:08:05;19.25;;;16.45;;
25045;SDS011;13044;49.304;12.840;2023-05-23T08:10:32;20.52;;;16.73;;
25045;SDS011;13044;49.304;12.840;2023-05-23T08:12:59;19.70;;;16.58;;
25045;SDS011;13044;49.304;12.840;2023-05-23T08:15:29;21.30;;;16.25;;
25045;SDS011;13044;49.304;12.840;2023-05-23T08:17:56;17.25;;;15.23;;
25045;SDS011;13044;49.304;12.840;2023-05-23T08:20:24;16.33;;;14.63;;
25045;SDS011;13044;49.304;12.840;2023-05-23T08:22:59;18.50;;;16.67;;
25045;SDS011;13044;49.304;12.840;2023-05-23T08:25:27;17.95;;;15.18;;
25045;SDS011;13044;49.304;12.840;2023-05-23T08:27:58;18.58;;;16.48;;
25045;SDS011;13044;49.304;12.840;2023-05-23T08:30:27;16.27;;;14.50;;
25045;SDS011;13044;49.304;12.840;2023-05-23T08:32:55;17.55;;;15.45;;
25045;SDS011;13044;49.304;12.840;2023-05-23T08:35:23;19.35;;;14.98;;
25045;SDS011;13044;49.304;12.840;2023-05-23T08:37:49;17.40;;;14.90;;
25045;SDS011;13044;49.304;12.840;2023-05-23T08:40:18;14.50;;;13.05;;
25045;SDS011;13044;49.304;12.840;2023-05-23T08:42:47;16.70;;;14.90;;
25045;SDS011;13044;49.304;12.840;2023-05-23T08:45:15;16.33;;;14.45;;
25045;SDS011;13044;49.304;12.840;2023-05-23T08:47:43;15.38;;;13.65;;
25045;SDS011;13044;49.304;12.840;2023-05-23T08:50:15;16.63;;;13.55;;
25045;SDS011;13044;49.304;12.840;2023-05-23T08:52:49;17.70;;;14.00;;
25045;SDS011;13044;49.304;12.840;2023-05-23T08:55:24;14.15;;;12.45;;
25045;SDS011;13044;49.304;12.840;2023-05-23T08:57:54;12.77;;;11.48;;
25045;SDS011;13044;49.304;12.840;2023-05-23T09:00:25;13.20;;;10.40;;
25045;SDS011;13044;49.304;12.840;2023-05-23T09:02:53;11.48;;;10.20;;
25045;SDS011;13044;49.304;12.840;2023-05-23T09:05:20;11.40;;;10.20;;
25045;SDS011;13044;49.304;12.840;2023-05-23T09:07:48;11.95;;;9.52;;
25045;SDS011;13044;49.304;12.840;2023-05-23T09:10:16;10.82;;;9.82;;
25045;SDS011;13044;49.304;12.840;2023-05-23T09:12:47;10.88;;;9.20;;
25045;SDS011;13044;49.304;12.840;2023-05-23T09:15:15;10.75;;;9.30;;
25045;SDS011;13044;49.304;12.840;2023-05-23T09:17:43;11.98;;;9.48;;
25045;SDS011;13044;49.304;12.840;2023-05-23T09:20:11;10.93;;;9.52;;
25045;SDS011;13044;49.304;12.840;2023-05-23T09:22:44;12.43;;;9.40;;
25045;SDS011;13044;49.304;12.840;2023-05-23T09:25:14;11.55;;;8.85;;
25045;SDS011;13044;49.304;12.840;2023-05-23T09:27:42;10.93;;;9.45;;
25045;SDS011;13044;49.304;12.840;2023-05-23T09:30:13;11.00;;;9.90;;
25045;SDS011;13044;49.304;12.840;2023-05-23T09:32:40;8.90;;;7.40;;
25045;SDS011;13044;49.304;12.840;2023-05-23T09:35:08;8.55;;;7.68;;
25045;SDS011;13044;49.304;12.840;2023-05-23T09:37:40;12.88;;;9.43;;
25045;SDS011;13044;49.304;12.840;2023-05-23T09:40:11;11.15;;;9.20;;
25045;SDS011;13044;49.304;12.840;2023-05-23T09:42:41;10.30;;;8.63;;
25045;SDS011;13044;49.304;12.840;2023-05-23T09:45:12;10.27;;;8.38;;
25045;SDS011;13044;49.304;12.840;2023-05-23T09:47:48;9.15;;;7.95;;
25045;SDS011;13044;49.304;12.840;2023-05-23T09:50:19;9.80;;;8.73;;
25045;SDS011;13044;49.304;12.840;2023-05-23T09:52:48;9.25;;;8.32;;
25045;SDS011;13044;49.304;12.840;2023-05-23T09:55:16;10.48;;;8.10;;
25045;SDS011;13044;49.304;12.840;2023-05-23T09:57:43;8.18;;;7.40;;
25045;SDS011;13044;49.304;12.840;2023-05-23T10:00:14;11.15;;;8.38;;
25045;SDS011;13044;49.304;12.840;2023-05-23T10:03:00;10.02;;;8.15;;
25045;SDS011;13044;49.304;12.840;2023-05-23T10:05:43;10.30;;;8.20;;
25045;SDS011;13044;49.304;12.840;2023-05-23T10:08:17;9.48;;;7.88;;
25045;SDS011;13044;49.304;12.840;2023-05-23T10:11:05;8.63;;;7.70;;
25045;SDS011;13044;49.304;12.840;2023-05-23T10:13:49;8.85;;;7.55;;
25045;SDS011;13044;49.304;12.840;2023-05-23T10:16:24;8.35;;;7.50;;
25045;SDS011;13044;49.304;12.840;2023-05-23T10:22:10;9.77;;;7.43;;
25045;SDS011;13044;49.304;12.840;2023-05-23T10:24:40;8.68;;;7.75;;
25045;SDS011;13044;49.304;12.840;2023-05-23T10:27:08;7.82;;;7.03;;
25045;SDS011;13044;49.304;12.840;2023-05-23T10:29:35;11.73;;;7.97;;
25045;SDS011;13044;49.304;12.840;2023-05-23T10:32:03;8.75;;;7.90;;
25045;SDS011;13044;49.304;12.840;2023-05-23T10:34:34;9.75;;;7.60;;
25045;SDS011;13044;49.304;12.840;2023-05-23T10:37:11;11.52;;;7.47;;
25045;SDS011;13044;49.304;12.840;2023-05-23T10:40:12;8.30;;;7.43;;
25045;SDS011;13044;49.304;12.840;2023-05-23T10:43:06;11.90;;;7.55;;
25045;SDS011;13044;49.304;12.840;2023-05-23T10:45:43;10.13;;;7.40;;
25045;SDS011;13044;49.304;12.840;2023-05-23T10:48:22;7.72;;;6.97;;
25045;SDS011;13044;49.304;12.840;2023-05-23T10:51:04;8.57;;;7.43;;
25045;SDS011;13044;49.304;12.840;2023-05-23T10:53:34;9.52;;;8.52;;
25045;SDS011;13044;49.304;12.840;2023-05-23T10:56:10;9.20;;;8.27;;
25045;SDS011;13044;49.304;12.840;2023-05-23T10:58:55;9.77;;;8.25;;
25045;SDS011;13044;49.304;12.840;2023-05-23T11:01:24;10.05;;;7.50;;
25045;SDS011;13044;49.304;12.840;2023-05-23T11:03:52;9.63;;;8.48;;
25045;SDS011;13044;49.304;12.840;2023-05-23T11:09:10;9.40;;;7.28;;
25045;SDS011;13044;49.304;12.840;2023-05-23T11:16:59;9.40;;;6.80;;
25045;SDS011;13044;49.304;12.840;2023-05-23T11:22:35;8.85;;;6.82;;
25045;SDS011;13044;49.304;12.840;2023-05-23T11:25:06;10.35;;;7.57;;
25045;SDS011;13044;49.304;12.840;2023-05-23T11:27:36;8.05;;;6.03;;
25045;SDS011;13044;49.304;12.840;2023-05-23T11:30:06;13.15;;;7.60;;
25045;SDS011;13044;49.304;12.840;2023-05-23T11:32:35;10.50;;;7.07;;
25045;SDS011;13044;49.304;12.840;2023-05-23T11:35:03;7.68;;;6.97;;
25045;SDS011;13044;49.304;12.840;2023-05-23T11:37:32;8.38;;;6.53;;
25045;SDS011;13044;49.304;12.840;2023-05-23T11:43:04;9.30;;;7.10;;
25045;SDS011;13044;49.304;12.840;2023-05-23T11:45:33;10.23;;;7.75;;
25045;SDS011;13044;49.304;12.840;2023-05-23T11:48:08;9.18;;;7.72;;
25045;SDS011;13044;49.304;12.840;2023-05-23T11:51:11;9.48;;;7.85;;
25045;SDS011;13044;49.304;12.840;2023-05-23T11:53:31;7.68;;;6.88;;
25045;SDS011;13044;49.304;12.840;2023-05-23T11:56:00;9.43;;;6.93;;
25045;SDS011;13044;49.304;12.840;2023-05-23T11:58:28;8.80;;;6.43;;
25045;SDS011;13044;49.304;12.840;2023-05-23T12:01:03;8.25;;;7.45;;
25045;SDS011;13044;49.304;12.840;2023-05-23T12:03:33;8.32;;;6.80;;
25045;SDS011;13044;49.304;12.840;2023-05-23T12:06:01;8.48;;;6.97;;
25045;SDS011;13044;49.304;12.840;2023-05-23T12:08:28;8.98;;;6.97;;
25045;SDS011;13044;49.304;12.840;2023-05-23T12:10:58;9.10;;;7.25;;
25045;SDS011;13044;49.304;12.840;2023-05-23T12:13:29;7.47;;;6.28;;
25045;SDS011;13044;49.304;12.840;2023-05-23T12:15:56;10.90;;;7.32;;
25045;SDS011;13044;49.304;12.840;2023-05-23T12:18:26;8.60;;;6.70;;
25045;SDS011;13044;49.304;12.840;2023-05-23T12:20:59;10.07;;;6.90;;
25045;SDS011;13044;49.304;12.840;2023-05-23T12:25:59;7.68;;;6.68;;
25045;SDS011;13044;49.304;12.840;2023-05-23T12:28:36;7.85;;;6.35;;
25045;SDS011;13044;49.304;12.840;2023-05-23T12:31:09;7.88;;;6.80;;
25045;SDS011;13044;49.304;12.840;2023-05-23T12:33:44;12.27;;;7.18;;
25045;SDS011;13044;49.304;12.840;2023-05-23T12:36:20;9.10;;;5.82;;
25045;SDS011;13044;49.304;12.840;2023-05-23T12:39:04;8.38;;;6.75;;
25045;SDS011;13044;49.304;12.840;2023-05-23T12:41:32;9.00;;;6.25;;
25045;SDS011;13044;49.304;12.840;2023-05-23T12:43:59;8.13;;;6.80;;
25045;SDS011;13044;49.304;12.840;2023-05-23T12:46:27;8.70;;;6.00;;
25045;SDS011;13044;49.304;12.840;2023-05-23T12:48:54;6.93;;;6.05;;
25045;SDS011;13044;49.304;12.840;2023-05-23T12:51:21;7.90;;;6.70;;
25045;SDS011;13044;49.304;12.840;2023-05-23T12:53:48;6.78;;;5.80;;
25045;SDS011;13044;49.304;12.840;2023-05-23T12:56:15;6.10;;;5.50;;
25045;SDS011;13044;49.304;12.840;2023-05-23T12:58:42;6.30;;;5.63;;
25045;SDS011;13044;49.304;12.840;2023-05-23T13:01:09;8.00;;;6.28;;
25045;SDS011;13044;49.304;12.840;2023-05-23T13:03:36;8.23;;;6.03;;
25045;SDS011;13044;49.304;12.840;2023-05-23T13:06:03;7.20;;;6.00;;
25045;SDS011;13044;49.304;12.840;2023-05-23T13:08:31;8.32;;;5.32;;
25045;SDS011;13044;49.304;12.840;2023-05-23T13:10:58;5.50;;;4.95;;
25045;SDS011;13044;49.304;12.840;2023-05-23T13:13:25;6.97;;;5.47;;
25045;SDS011;13044;49.304;12.840;2023-05-23T13:15:52;8.13;;;6.00;;
25045;SDS011;13044;49.304;12.840;2023-05-23T13:18:19;6.00;;;5.40;;
25045;SDS011;13044;49.304;12.840;2023-05-23T13:20:46;5.43;;;4.93;;
25045;SDS011;13044;49.304;12.840;2023-05-23T13:23:13;6.10;;;5.60;;
25045;SDS011;13044;49.304;12.840;2023-05-23T13:25:40;5.88;;;5.28;;
25045;SDS011;13044;49.304;12.840;2023-05-23T13:28:08;5.72;;;5.03;;
25045;SDS011;13044;49.304;12.840;2023-05-23T13:30:35;6.68;;;5.95;;
25045;SDS011;13044;49.304;12.840;2023-05-23T13:33:02;7.25;;;6.15;;
25045;SDS011;13044;49.304;12.840;2023-05-23T13:35:30;7.15;;;6.18;;
25045;SDS011;13044;49.304;12.840;2023-05-23T13:37:56;10.15;;;5.60;;
25045;SDS011;13044;49.304;12.840;2023-05-23T13:40:23;7.25;;;5.68;;
25045;SDS011;13044;49.304;12.840;2023-05-23T13:42:50;9.02;;;5.97;;
25045;SDS011;13044;49.304;12.840;2023-05-23T13:45:18;7.10;;;5.40;;
25045;SDS011;13044;49.304;12.840;2023-05-23T13:47:47;8.05;;;5.82;;
25045;SDS011;13044;49.304;12.840;2023-05-23T13:50:14;9.23;;;5.90;;
25045;SDS011;13044;49.304;12.840;2023-05-23T13:52:42;6.32;;;5.72;;
25045;SDS011;13044;49.304;12.840;2023-05-23T13:55:13;6.68;;;5.80;;
25045;SDS011;13044;49.304;12.840;2023-05-23T13:57:40;8.77;;;6.03;;
25045;SDS011;13044;49.304;12.840;2023-05-23T14:00:07;8.80;;;5.88;;
25045;SDS011;13044;49.304;12.840;2023-05-23T14:02:34;6.88;;;5.93;;
25045;SDS011;13044;49.304;12.840;2023-05-23T14:05:02;7.90;;;5.50;;
25045;SDS011;13044;49.304;12.840;2023-05-23T14:07:30;8.73;;;5.78;;
25045;SDS011;13044;49.304;12.840;2023-05-23T14:09:56;7.88;;;5.47;;
25045;SDS011;13044;49.304;12.840;2023-05-23T14:12:24;10.52;;;5.80;;
25045;SDS011;13044;49.304;12.840;2023-05-23T14:14:51;5.63;;;4.78;;
25045;SDS011;13044;49.304;12.840;2023-05-23T14:17:18;8.27;;;5.38;;
25045;SDS011;13044;49.304;12.840;2023-05-23T14:19:45;9.52;;;5.93;;
25045;SDS011;13044;49.304;12.840;2023-05-23T14:22:12;5.68;;;5.07;;
25045;SDS011;13044;49.304;12.840;2023-05-23T14:24:39;6.47;;;5.13;;
25045;SDS011;13044;49.304;12.840;2023-05-23T14:27:06;6.90;;;5.00;;
25045;SDS011;13044;49.304;12.840;2023-05-23T14:29:36;5.65;;;4.97;;
25045;SDS011;13044;49.304;12.840;2023-05-23T14:32:05;9.13;;;4.68;;
25045;SDS011;13044;49.304;12.840;2023-05-23T14:34:32;6.10;;;5.38;;
25045;SDS011;13044;49.304;12.840;2023-05-23T14:36:59;6.40;;;4.65;;
25045;SDS011;13044;49.304;12.840;2023-05-23T14:39:26;5.43;;;4.80;;
25045;SDS011;13044;49.304;12.840;2023-05-23T14:41:54;6.50;;;4.30;;
25045;SDS011;13044;49.304;12.840;2023-05-23T14:44:21;5.47;;;4.70;;
25045;SDS011;13044;49.304;12.840;2023-05-23T14:46:48;7.07;;;4.18;;
25045;SDS011;13044;49.304;12.840;2023-05-23T14:49:18;5.72;;;4.07;;
25045;SDS011;13044;49.304;12.840;2023-05-23T14:51:45;5.75;;;4.22;;
25045;SDS011;13044;49.304;12.840;2023-05-23T14:54:17;6.00;;;4.22;;
25045;SDS011;13044;49.304;12.840;2023-05-23T14:56:44;4.82;;;3.53;;
25045;SDS011;13044;49.304;12.840;2023-05-23T14:59:11;3.88;;;3.33;;